Upstream stations:
Downstream station:
SHEF ID: BRIO2 Canadian River at Bridgeport, OK
STATION TYPE:
Regulating: Stage = 15.00, Flow = 8545
STAGE RIV-FLOW
ft cfs
Ccp-Rev Ccp-Rev
(US/Central)
06/01 00:00 12.59 2176
06/01 01:00 12.56 2132
06/01 02:00 12.55 2117
06/01 03:00 12.53 2089
06/01 04:00 12.51 2060
06/01 05:00 12.50 2046
06/01 06:00 12.50 2046
06/01 07:00 12.72 2373
06/01 08:00 12.63 2235
06/01 09:00 12.71 2357
06/01 10:00 12.59 2176
06/01 11:00 12.51 2060
06/01 12:00 12.63 2235
06/01 13:00 13.13 3073
06/01 14:00 12.96 2768
06/01 15:00 12.87 2615
06/01 16:00 12.95 2750
06/01 17:00 12.89 2648
06/01 18:00 12.73 2388
06/01 19:00 12.66 2280
06/01 20:00 12.61 2205
06/01 21:00 12.59 2176
06/01 22:00 13.15 3111
06/01 23:00 ---- ----